Time;durP1;ratioP1;P1;durP2;ratioP2;P2;SDS_P1;SDS_P2;PMS_P1;PMS_P2;Temp;Humidity;BMP_temperature;BMP_pressure;BME280_temperature;BME280_humidity;BME280_pressure;Samples;Min_cycle;Max_cycle;Signal;HPM_P1;HPM_P2
2022/10/16 00:01:07;;;;;;;1.15;1.10;;;15.70;99.90;;;15.91;100.00;100578.81;5210312;28;20048;-72
2022/10/16 00:03:40;;;;;;;1.73;0.98;;;15.70;99.90;;;15.91;100.00;100589.31;5228575;28;20060;-71
2022/10/16 00:06:13;;;;;;;1.63;1.15;;;15.70;99.90;;;15.90;100.00;100592.78;5228473;28;20072;-71
2022/10/16 00:08:47;;;;;;;1.88;1.30;;;15.70;99.90;;;15.91;100.00;100593.66;5228829;28;20049;-71
2022/10/16 00:11:22;;;;;;;1.38;1.27;;;15.70;99.90;;;15.91;100.00;100596.28;5209979;28;20391;-72
2022/10/16 00:13:56;;;;;;;;;;;15.70;99.90;;;15.88;100.00;100597.16;5228918;28;20045;-71
2022/10/16 00:16:29;;;;;;;;;;;15.70;99.90;;;15.87;100.00;100590.13;5211006;28;20419;-71
2022/10/16 00:19:01;;;;;;;1.48;1.00;;;15.70;99.90;;;15.87;100.00;100598.03;5228379;28;19925;-72
2022/10/16 00:21:33;;;;;;;1.58;1.10;;;15.70;99.90;;;15.85;100.00;100599.75;5227864;28;20037;-72
2022/10/16 00:24:11;;;;;;;1.70;1.17;;;15.60;99.90;;;15.83;100.00;100587.47;5210302;28;20055;-71
2022/10/16 00:26:43;;;;;;;2.08;1.30;;;15.60;99.90;;;15.80;100.00;100593.56;5228292;28;20055;-72
2022/10/16 00:29:16;;;;;;;1.40;1.00;;;15.60;99.90;;;15.77;100.00;100606.66;5210096;28;20037;-71
2022/10/16 00:31:48;;;;;;;1.85;1.30;;;15.60;99.90;;;15.73;100.00;100605.75;5227706;28;20048;-71
2022/10/16 00:34:20;;;;;;;1.40;1.30;;;15.50;99.90;;;15.71;100.00;100603.97;5210027;28;20413;-73
2022/10/16 00:36:53;;;;;;;1.13;0.93;;;15.50;99.90;;;15.68;100.00;100606.56;5227805;28;20045;-71
2022/10/16 00:39:26;;;;;;;1.17;0.80;;;15.50;99.90;;;15.63;100.00;100613.53;5227800;28;20037;-71
2022/10/16 00:41:58;;;;;;;1.33;1.23;;;15.40;99.90;;;15.59;100.00;100604.72;5209673;28;20409;-72
2022/10/16 00:44:49;;;;;;;1.88;1.20;;;15.40;99.90;;;15.58;100.00;100607.28;5227714;28;20045;-72
2022/10/16 00:47:27;;;;;;;1.30;1.00;;;15.40;99.90;;;15.57;100.00;100588.03;5209676;28;20052;-71
2022/10/16 00:50:06;;;;;;;1.70;1.40;;;15.30;99.90;;;15.56;100.00;100591.53;5227432;28;20432;-72
2022/10/16 00:52:42;;;;;;;1.30;0.90;;;15.30;99.90;;;15.57;100.00;100576.63;5227524;28;20094;-71
2022/10/16 00:55:16;;;;;;;1.90;1.10;;;15.40;99.90;;;15.56;100.00;100599.41;5227823;28;20056;-70
2022/10/16 00:57:51;;;;;;;1.73;1.40;;;15.30;99.90;;;15.57;100.00;100597.66;5227485;28;20437;-71
2022/10/16 01:00:26;;;;;;;;;;;15.40;99.90;;;15.55;100.00;100600.25;5227543;28;20049;-71
2022/10/16 01:03:00;;;;;;;2.47;1.02;;;15.40;99.90;;;15.57;100.00;100597.66;5209479;28;19959;-72
2022/10/16 01:05:37;;;;;;;;;;;15.40;99.90;;;15.55;100.00;100597.66;5227356;28;20041;-71
2022/10/16 01:08:16;;;;;;;1.42;1.33;;;15.40;99.90;;;15.55;100.00;100586.25;5209646;28;20309;-72
2022/10/16 01:10:59;;;;;;;1.23;0.93;;;15.40;99.90;;;15.56;100.00;100598.53;5227096;28;20041;-72
2022/10/16 01:13:38;;;;;;;1.25;1.00;;;15.40;99.90;;;15.55;100.00;100604.66;5226819;28;20045;-71
2022/10/16 01:16:17;;;;;;;0.90;0.70;;;15.40;99.90;;;15.55;100.00;100599.38;5209780;28;20052;-71
2022/10/16 01:18:56;;;;;;;1.23;0.90;;;15.40;99.90;;;15.54;100.00;100589.75;5208934;28;20081;-71
2022/10/16 01:21:33;;;;;;;1.40;0.90;;;15.30;99.90;;;15.53;100.00;100601.13;5208794;28;20048;-73
2022/10/16 01:24:18;;;;;;;0.93;0.82;;;15.30;99.90;;;15.52;100.00;100604.59;5227006;28;20045;-70
2022/10/16 01:27:08;;;;;;;0.70;0.70;;;15.30;99.90;;;15.50;100.00;100601.06;5209206;28;20057;-72
2022/10/16 01:29:50;;;;;;;3.42;0.80;;;15.30;99.90;;;15.47;100.00;100608.06;5226723;28;20052;-72
2022/10/16 01:32:32;;;;;;;0.98;0.77;;;15.30;99.90;;;15.43;100.00;100622.00;5208834;28;20098;-73
2022/10/16 01:35:11;;;;;;;2.70;1.00;;;15.20;99.90;;;15.38;100.00;100607.94;5208829;28;20112;-70
2022/10/16 01:37:52;;;;;;;0.85;0.70;;;15.20;99.90;;;15.34;100.00;100598.28;5226947;28;20041;-72
2022/10/16 01:40:28;;;;;;;1.40;1.30;;;15.20;99.90;;;15.34;100.00;100608.78;5226006;28;20413;-72
2022/10/16 01:43:07;;;;;;;1.10;1.00;;;15.10;99.90;;;15.34;100.00;100613.16;5226730;28;20435;-71
2022/10/16 01:45:44;;;;;;;0.70;0.70;;;15.10;99.90;;;15.32;100.00;100601.72;5209004;28;20452;-72
2022/10/16 01:48:22;;;;;;;0.73;0.65;;;15.10;99.90;;;15.28;100.00;100618.31;5227020;28;20081;-72
2022/10/16 01:51:00;;;;;;;1.20;1.10;;;15.10;99.90;;;15.24;100.00;100624.38;5226151;28;20476;-71
2022/10/16 01:53:33;;;;;;;1.02;0.70;;;15.10;99.90;;;15.19;100.00;100622.59;5208638;28;20052;-73
2022/10/16 01:56:10;;;;;;;1.08;0.88;;;15.00;99.90;;;15.17;100.00;100610.28;5226319;28;20565;-72
2022/10/16 01:58:49;;;;;;;1.52;1.42;;;15.00;99.90;;;15.17;100.00;100610.28;5226454;28;20716;-72
2022/10/16 02:01:26;;;;;;;1.63;1.15;;;15.00;99.90;;;15.17;100.00;100612.91;5225887;28;20433;-72
2022/10/16 02:04:05;;;;;;;1.42;1.00;;;15.00;99.90;;;15.16;100.00;100613.78;5226537;28;20041;-72
2022/10/16 02:06:37;;;;;;;1.13;0.90;;;15.00;99.90;;;15.16;100.00;100616.41;5207970;28;20045;-73
2022/10/16 02:09:10;;;;;;;1.02;0.80;;;15.00;99.90;;;15.16;100.00;100617.28;5208718;28;20056;-71
2022/10/16 02:11:42;;;;;;;1.92;0.82;;;15.00;99.90;;;15.16;100.00;100616.41;5225288;28;20517;-72
2022/10/16 02:14:17;;;;;;;0.98;0.90;;;15.00;99.90;;;15.16;100.00;100616.41;5226046;28;20111;-72
2022/10/16 02:16:49;;;;;;;1.33;0.82;;;15.00;99.90;;;15.17;100.00;100618.19;5225007;28;20506;-72
2022/10/16 02:19:22;;;;;;;1.25;0.90;;;15.00;99.90;;;15.18;100.00;100630.44;5225955;28;20055;-71
2022/10/16 02:21:58;;;;;;;1.58;1.02;;;15.00;99.90;;;15.16;100.00;100626.91;5225339;28;20151;-72
2022/10/16 02:24:37;;;;;;;0.82;0.80;;;15.00;99.90;;;15.17;100.00;100629.56;5207753;28;20144;-71
2022/10/16 02:27:14;;;;;;;1.85;1.20;;;15.00;99.90;;;15.18;100.00;100626.06;5225780;28;20048;-72
2022/10/16 02:29:58;;;;;;;1.60;1.10;;;15.00;99.90;;;15.20;100.00;100615.59;5225730;28;20059;-72
2022/10/16 02:32:33;;;;;;;1.38;1.00;;;15.00;99.90;;;15.22;100.00;100619.13;5225600;28;20126;-72
2022/10/16 02:35:08;;;;;;;1.73;1.10;;;15.00;99.90;;;15.23;100.00;100623.50;5225079;28;20045;-71
2022/10/16 02:37:42;;;;;;;1.30;1.05;;;15.00;99.90;;;15.25;100.00;100628.78;5207991;28;20067;-72
2022/10/16 02:40:15;;;;;;;1.33;1.00;;;15.10;99.90;;;15.26;100.00;100626.19;5225326;28;20051;-71
2022/10/16 02:42:52;;;;;;;1.27;1.00;;;15.10;99.90;;;15.27;100.00;100635.81;5207768;28;20049;-71
2022/10/16 02:45:27;;;;;;;1.15;0.90;;;15.10;99.90;;;15.28;100.00;100645.47;5225303;28;20146;-71
2022/10/16 02:47:59;;;;;;;1.58;1.30;;;15.10;99.90;;;15.30;100.00;100645.47;5207764;28;20044;-72
2022/10/16 02:50:31;;;;;;;1.58;0.90;;;15.10;99.90;;;15.31;100.00;100632.34;5225012;28;20059;-72
2022/10/16 02:53:03;;;;;;;1.83;1.05;;;15.10;99.90;;;15.30;100.00;100630.59;5225086;28;20115;-73
2022/10/16 02:55:36;;;;;;;1.80;1.10;;;15.10;99.90;;;15.31;100.00;100627.09;5225161;28;20552;-72
2022/10/16 02:58:08;;;;;;;1.48;1.00;;;15.10;99.90;;;15.31;100.00;100632.34;5225359;28;20044;-71
2022/10/16 03:00:43;;;;;;;1.33;1.23;;;15.10;99.90;;;15.32;100.00;100639.41;5207106;28;20420;-72
2022/10/16 03:03:16;;;;;;;0.85;0.80;;;15.10;99.90;;;15.33;100.00;100641.16;5225360;28;20040;-73
2022/10/16 03:05:49;;;;;;;1.40;0.98;;;15.10;99.90;;;15.34;100.00;100642.03;5207258;28;20135;-71
2022/10/16 03:08:23;;;;;;;1.60;1.25;;;15.10;99.90;;;15.32;100.00;100639.41;5346917;22;20038;-71
2022/10/16 03:10:55;;;;;;;1.42;0.82;;;15.10;99.90;;;15.33;100.00;100628.03;5235646;28;20055;-70
2022/10/16 03:13:27;;;;;;;0.90;0.80;;;15.10;99.90;;;15.31;100.00;100627.09;5222308;28;20037;-70
2022/10/16 03:16:01;;;;;;;1.67;1.10;;;15.10;99.90;;;15.31;100.00;100634.97;5223823;28;20059;-70
2022/10/16 03:18:37;;;;;;;1.08;0.98;;;15.10;99.90;;;15.31;100.00;100631.47;5222845;28;20051;-72
2022/10/16 03:21:10;;;;;;;3.67;1.70;;;15.10;99.90;;;15.29;100.00;100613.09;5222406;28;20059;-71
2022/10/16 03:23:46;;;;;;;1.05;0.95;;;15.10;99.90;;;15.26;100.00;100613.06;5222747;28;20157;-71
2022/10/16 03:26:19;;;;;;;1.23;1.00;;;15.10;99.90;;;15.24;100.00;100622.63;5218971;28;20056;-71
2022/10/16 03:28:51;;;;;;;1.00;0.90;;;15.10;99.90;;;15.23;100.00;100613.00;5222133;28;20045;-70
2022/10/16 03:31:24;;;;;;;1.42;1.10;;;15.10;99.90;;;15.24;100.00;100629.63;5221041;28;20041;-71
2022/10/16 03:33:57;;;;;;;2.97;1.02;;;15.10;99.90;;;15.24;100.00;100641.03;5222197;28;20351;-70
2022/10/16 03:36:29;;;;;;;1.20;1.10;;;15.10;99.90;;;15.24;100.00;100625.25;5222251;28;20432;-71
2022/10/16 03:39:02;;;;;;;1.65;0.98;;;15.10;99.90;;;15.27;100.00;100627.06;5220523;28;20118;-70
2022/10/16 03:41:34;;;;;;;1.65;1.15;;;15.10;99.90;;;15.26;100.00;100622.66;5222480;28;20040;-70
2022/10/16 03:44:06;;;;;;;1.30;0.80;;;15.10;99.90;;;15.22;100.00;100627.00;5217581;28;20283;-67
2022/10/16 03:46:40;;;;;;;1.30;1.13;;;15.00;99.90;;;15.23;100.00;100622.63;5224324;28;20352;-72
2022/10/16 03:49:12;;;;;;;1.38;1.00;;;15.00;99.90;;;15.23;100.00;100627.88;5207945;28;20082;-71
2022/10/16 03:51:44;;;;;;;0.88;0.80;;;15.00;99.90;;;15.22;100.00;100639.25;5222236;28;20053;-71
2022/10/16 03:54:16;;;;;;;0.95;0.70;;;15.00;99.90;;;15.19;100.00;100634.81;5224995;28;20040;-70
2022/10/16 03:56:48;;;;;;;1.10;0.80;;;15.00;99.90;;;15.18;100.00;100641.81;5217826;28;20045;-73
2022/10/16 03:59:20;;;;;;;1.17;0.70;;;15.00;99.90;;;15.17;100.00;100644.44;5236249;28;20048;-71
2022/10/16 04:01:54;;;;;;;0.88;0.88;;;15.00;99.90;;;15.17;100.00;100660.19;5224438;28;20045;-72
2022/10/16 04:04:26;;;;;;;1.20;0.70;;;15.00;99.90;;;15.16;100.00;100674.19;5225005;28;20513;-70
2022/10/16 04:06:58;;;;;;;1.00;0.90;;;15.00;99.90;;;15.17;100.00;100675.94;5223446;28;20049;-70
2022/10/16 04:09:30;;;;;;;0.77;0.70;;;15.00;99.90;;;15.19;100.00;100682.09;5224783;28;20057;-71
2022/10/16 04:12:02;;;;;;;1.48;0.90;;;15.00;99.90;;;15.20;100.00;100676.88;5224902;28;20049;-71
2022/10/16 04:14:34;;;;;;;0.75;0.70;;;15.00;99.90;;;15.24;100.00;100682.16;5224669;28;20040;-71
2022/10/16 04:17:08;;;;;;;1.15;1.05;;;15.00;99.90;;;15.26;100.00;100678.72;5224735;28;20048;-71
2022/10/16 04:19:40;;;;;;;4.28;0.85;;;15.10;99.90;;;15.28;100.00;100671.72;5224934;28;20152;-72
2022/10/16 04:22:13;;;;;;;0.80;0.70;;;15.10;99.90;;;15.31;100.00;100657.75;5225564;28;20071;-71
2022/10/16 04:24:45;;;;;;;1.02;0.80;;;15.10;99.90;;;15.33;100.00;100667.44;5224915;28;20037;-70
2022/10/16 04:27:17;;;;;;;1.05;0.80;;;15.10;99.90;;;15.35;100.00;100670.06;5225004;28;20053;-71
2022/10/16 04:29:49;;;;;;;1.00;0.80;;;15.10;99.90;;;15.37;100.00;100682.34;5223325;28;20053;-71
2022/10/16 04:32:22;;;;;;;1.63;0.93;;;15.10;99.90;;;15.38;100.00;100676.22;5224650;28;20417;-71
2022/10/16 04:34:54;;;;;;;0.98;0.85;;;15.20;99.90;;;15.40;100.00;100685.03;5224512;28;20048;-71
2022/10/16 04:37:27;;;;;;;0.75;0.70;;;15.20;99.90;;;15.40;100.00;100695.53;5224544;28;20060;-71
2022/10/16 04:39:59;;;;;;;1.08;0.80;;;15.20;99.90;;;15.42;100.00;100695.53;5225618;28;20474;-71
2022/10/16 04:42:31;;;;;;;0.70;0.70;;;15.20;99.90;;;15.43;100.00;100692.94;5227177;28;20045;-71
2022/10/16 04:45:04;;;;;;;0.80;0.50;;;15.20;99.90;;;15.43;100.00;100687.69;5228732;28;20049;-71
2022/10/16 04:47:38;;;;;;;0.90;0.90;;;15.20;99.90;;;15.45;100.00;100693.84;5228650;28;20430;-72
2022/10/16 04:50:10;;;;;;;1.05;0.60;;;15.20;99.90;;;15.46;100.00;100695.63;5227888;28;20044;-70
2022/10/16 04:52:42;;;;;;;0.80;0.60;;;15.20;99.90;;;15.47;100.00;100694.75;5226757;28;20073;-71
2022/10/16 04:55:14;;;;;;;2.08;0.60;;;15.30;99.90;;;15.48;100.00;100683.38;5228645;28;20066;-71
2022/10/16 04:57:46;;;;;;;1.35;0.80;;;15.30;99.90;;;15.48;100.00;100687.75;5226910;28;20056;-72
2022/10/16 05:00:19;;;;;;;0.98;0.98;;;15.30;99.90;;;15.48;100.00;100687.75;5221923;28;20416;-71
2022/10/16 05:02:52;;;;;;;0.70;0.70;;;15.30;99.90;;;15.47;100.00;100686.88;5227941;28;20059;-71
2022/10/16 05:05:24;;;;;;;1.38;0.70;;;15.30;99.90;;;15.46;100.00;100690.38;5210166;28;20045;-71
2022/10/16 05:07:56;;;;;;;1.00;0.90;;;15.30;99.90;;;15.46;100.00;100707.88;5224423;28;21892;-71
2022/10/16 05:10:28;;;;;;;0.85;0.85;;;15.30;99.90;;;15.44;100.00;100714.81;5206803;28;20052;-71
2022/10/16 05:13:01;;;;;;;0.60;0.60;;;15.30;99.90;;;15.45;100.00;100725.38;5209773;28;20049;-71
2022/10/16 05:15:33;;;;;;;0.73;0.70;;;15.30;99.90;;;15.45;100.00;100719.22;5221158;28;20049;-71
2022/10/16 05:18:06;;;;;;;0.90;0.70;;;15.30;99.90;;;15.44;100.00;100707.81;5227708;28;20041;-71
2022/10/16 05:20:38;;;;;;;0.50;0.50;;;15.30;99.90;;;15.44;100.00;100718.34;5209387;28;20049;-70
2022/10/16 05:23:11;;;;;;;1.95;0.70;;;15.30;99.90;;;15.46;100.00;100721.88;5227391;28;20079;-71
2022/10/16 05:25:43;;;;;;;2.22;1.20;;;15.30;99.90;;;15.47;100.00;100723.66;5209820;28;20466;-71
2022/10/16 05:28:15;;;;;;;0.70;0.70;;;15.30;99.90;;;15.48;100.00;100732.41;5224220;28;20044;-72
2022/10/16 05:30:47;;;;;;;1.67;0.77;;;15.30;99.90;;;15.48;100.00;100724.53;5225242;28;20077;-71
2022/10/16 05:33:23;;;;;;;1.35;0.80;;;15.30;99.90;;;15.48;100.00;100714.91;5227558;28;20037;-71
2022/10/16 05:35:55;;;;;;;1.10;0.93;;;15.30;99.90;;;15.48;100.00;100728.03;5227343;28;20049;-71
2022/10/16 05:38:27;;;;;;;1.20;1.10;;;15.30;99.90;;;15.50;100.00;100732.41;5227776;28;20410;-71
2022/10/16 05:40:59;;;;;;;0.70;0.70;;;15.30;99.90;;;15.47;100.00;100734.16;5227077;28;20045;-71
2022/10/16 05:43:32;;;;;;;1.25;0.65;;;15.30;99.90;;;15.46;100.00;100732.41;5227385;28;20041;-71
2022/10/16 05:46:06;;;;;;;0.80;0.80;;;15.30;99.90;;;15.46;100.00;100732.41;5227239;28;20052;-71
2022/10/16 05:48:40;;;;;;;0.60;0.60;;;15.30;99.90;;;15.42;100.00;100720.06;5209754;28;20049;-69
2022/10/16 05:51:15;;;;;;;0.70;0.60;;;15.20;99.90;;;15.41;100.00;100720.94;5209169;28;20049;-72
2022/10/16 05:53:47;;;;;;;0.85;0.85;;;15.20;99.90;;;15.39;100.00;100734.91;5227243;28;20048;-69
2022/10/16 05:56:19;;;;;;;1.35;0.93;;;15.20;99.90;;;15.38;100.00;100748.88;5227210;28;20127;-69
2022/10/16 05:58:51;;;;;;;0.60;0.60;;;15.20;99.90;;;15.38;100.00;100754.13;5227177;28;20055;-70
2022/10/16 06:01:24;;;;;;;0.70;0.70;;;15.20;99.90;;;15.38;100.00;100759.38;5226887;28;20509;-68
2022/10/16 06:03:57;;;;;;;1.20;0.70;;;15.20;99.90;;;15.36;100.00;100762.00;5226477;28;20049;-58
2022/10/16 06:06:30;;;;;;;0.85;0.85;;;15.20;99.90;;;15.36;100.00;100771.63;5226064;28;20052;-58
2022/10/16 06:09:03;;;;;;;0.95;0.80;;;15.20;99.90;;;15.32;100.00;100765.47;5223888;28;20045;-57
2022/10/16 06:11:35;;;;;;;0.80;0.80;;;15.20;99.90;;;15.31;100.00;100770.66;5227203;28;20056;-56
2022/10/16 06:14:07;;;;;;;1.08;0.68;;;15.10;99.90;;;15.28;100.00;100774.16;5226869;28;20041;-56
2022/10/16 06:16:39;;;;;;;1.30;0.80;;;15.10;99.90;;;15.27;100.00;100774.13;5227077;28;20045;-57
2022/10/16 06:19:13;;;;;;;0.93;0.88;;;15.00;99.90;;;15.25;100.00;100789.84;5223721;28;20045;-58
2022/10/16 06:21:45;;;;;;;0.70;0.70;;;15.10;99.90;;;15.20;100.00;100792.41;5225284;28;20490;-57
2022/10/16 06:24:17;;;;;;;1.83;0.85;;;15.00;99.90;;;15.21;100.00;100793.28;5225906;28;20067;-57
2022/10/16 06:26:49;;;;;;;2.00;1.05;;;15.00;99.90;;;15.20;100.00;100787.16;5225890;28;20051;-57
2022/10/16 06:29:21;;;;;;;1.45;1.08;;;15.00;99.90;;;15.18;100.00;100783.59;5222355;28;20045;-56
2022/10/16 06:31:53;;;;;;;2.08;1.88;;;15.00;99.90;;;15.16;100.00;100793.22;5225390;28;20076;-58
2022/10/16 06:34:26;;;;;;;4.75;2.88;;;15.00;99.90;;;15.13;100.00;100790.53;5225882;28;20390;-59
2022/10/16 06:36:58;;;;;;;3.47;2.60;;;14.90;99.90;;;15.12;100.00;100793.13;5225680;28;20045;-58
2022/10/16 06:39:30;;;;;;;3.00;2.35;;;14.90;99.90;;;15.13;100.00;100808.03;5225664;28;20045;-58
2022/10/16 06:42:03;;;;;;;3.80;2.08;;;14.90;99.90;;;15.15;100.00;100815.06;5225180;28;20501;-57
2022/10/16 06:44:41;;;;;;;2.65;2.00;;;15.00;99.90;;;15.19;100.00;100826.50;5222052;28;20099;-56
2022/10/16 06:47:13;;;;;;;2.00;1.80;;;15.00;99.90;;;15.25;100.00;100826.59;5225499;28;20084;-57
2022/10/16 06:49:47;;;;;;;2.47;2.20;;;15.00;99.90;;;15.32;100.00;100822.31;5221323;28;20468;-57
2022/10/16 06:52:19;;;;;;;3.00;1.60;;;15.10;99.90;;;15.39;100.00;100830.34;5225117;28;20045;-57
2022/10/16 06:54:51;;;;;;;2.42;1.90;;;15.20;99.90;;;15.46;100.00;100832.22;5225005;28;20382;-58
2022/10/16 06:57:24;;;;;;;2.20;1.92;;;15.20;99.90;;;15.54;100.00;100839.31;5225192;28;20050;-57
2022/10/16 06:59:56;;;;;;;2.47;2.03;;;15.30;99.90;;;15.60;100.00;100832.41;5224981;28;20045;-58
2022/10/16 07:02:28;;;;;;;2.75;1.75;;;15.40;99.90;;;15.69;100.00;100835.19;5224687;28;20048;-60
2022/10/16 07:05:01;;;;;;;2.17;1.80;;;15.50;99.90;;;15.78;100.00;100850.25;5224815;28;20049;-57
2022/10/16 07:07:33;;;;;;;1.70;1.60;;;15.50;99.90;;;16.04;100.00;100847.06;5225439;28;20053;-60
2022/10/16 07:10:06;;;;;;;2.78;1.90;;;15.70;99.90;;;16.40;100.00;100844.91;5224678;28;20072;-59
2022/10/16 07:12:38;;;;;;;4.72;2.95;;;16.00;99.90;;;16.55;100.00;100855.59;5225034;28;20052;-59
2022/10/16 07:15:12;;;;;;;2.80;2.25;;;16.20;99.90;;;16.62;100.00;100863.56;5225213;28;20041;-59
2022/10/16 07:17:44;;;;;;;5.25;2.60;;;16.30;99.90;;;16.61;100.00;100867.94;5225008;28;20049;-59
2022/10/16 07:20:17;;;;;;;3.40;2.58;;;16.30;99.90;;;16.60;100.00;100875.84;5224859;28;20401;-59
2022/10/16 07:22:49;;;;;;;3.15;2.00;;;16.40;99.90;;;16.60;100.00;100878.47;5225237;28;20059;-57
2022/10/16 07:25:21;;;;;;;3.35;2.42;;;16.30;99.90;;;16.65;100.00;100892.56;5225072;28;20437;-57
2022/10/16 07:27:56;;;;;;;2.38;1.58;;;16.30;99.90;;;16.64;100.00;100893.44;5224004;28;20044;-58
2022/10/16 07:30:28;;;;;;;;;;;16.40;99.90;;;16.59;100.00;100896.00;5224706;28;20052;-57
2022/10/16 07:33:00;;;;;;;1.83;1.40;;;16.40;99.90;;;16.54;100.00;100893.31;5225027;28;19920;-58
2022/10/16 07:35:33;;;;;;;1.70;1.25;;;16.30;99.90;;;16.52;100.00;100896.81;5224737;28;20045;-56
2022/10/16 07:38:05;;;;;;;1.83;1.42;;;16.30;99.90;;;16.52;100.00;100915.22;5222971;28;20147;-58
2022/10/16 07:40:37;;;;;;;1.95;1.60;;;16.30;99.90;;;16.50;100.00;100919.59;5222612;28;20054;-56
2022/10/16 07:43:10;;;;;;;2.17;1.40;;;16.20;99.90;;;16.51;100.00;100911.72;5215622;28;20048;-61
2022/10/16 07:45:49;;;;;;;1.92;1.52;;;16.30;99.90;;;16.55;100.00;100913.50;5224730;28;20055;-58
2022/10/16 07:48:21;;;;;;;2.03;1.40;;;16.30;99.90;;;16.59;100.00;100918.81;5204356;28;20445;-59
2022/10/16 07:50:59;;;;;;;1.90;1.60;;;16.30;99.90;;;16.64;100.00;100927.66;5221450;28;20564;-58
2022/10/16 07:53:31;;;;;;;2.00;1.80;;;16.40;99.90;;;16.67;100.00;100925.03;5220309;28;20451;-57
2022/10/16 07:56:06;;;;;;;2.00;1.90;;;16.40;99.90;;;16.76;100.00;100941.00;5223827;28;20390;-59
2022/10/16 07:58:38;;;;;;;1.60;1.42;;;16.40;99.90;;;16.95;100.00;100937.72;5223824;28;20037;-58
2022/10/16 08:01:13;;;;;;;2.15;1.50;;;16.50;99.90;;;17.20;100.00;100949.38;5223341;28;20053;-59
2022/10/16 08:03:48;;;;;;;4.07;2.03;;;16.70;99.90;;;17.27;100.00;100950.31;5223295;28;20060;-57
2022/10/16 08:06:23;;;;;;;1.48;1.20;;;16.80;99.90;;;17.24;100.00;100961.72;5224003;28;20044;-57
2022/10/16 08:08:56;;;;;;;2.85;1.60;;;16.90;99.90;;;17.20;100.00;100959.91;5224621;28;20489;-62
2022/10/16 08:11:30;;;;;;;1.67;1.33;;;16.80;99.90;;;17.16;100.00;100962.50;5224087;28;20045;-61
2022/10/16 08:14:03;;;;;;;1.60;1.45;;;16.80;99.90;;;17.09;100.00;100962.44;5224828;28;20048;-59
2022/10/16 08:16:35;;;;;;;2.95;1.55;;;16.80;99.90;;;17.16;100.00;100966.03;5230420;28;20075;-62
2022/10/16 08:19:07;;;;;;;2.47;1.58;;;16.80;99.90;;;17.94;100.00;100977.31;5225785;28;20465;-58
2022/10/16 08:21:40;;;;;;;2.72;1.50;;;17.20;99.90;;;19.05;100.00;100969.13;5225187;28;20049;-55
2022/10/16 08:24:13;;;;;;;2.95;1.90;;;18.00;99.90;;;20.05;100.00;100967.47;5230777;28;20051;-58
2022/10/16 08:26:45;;;;;;;1.65;1.20;;;18.80;99.90;;;20.95;100.00;100969.88;5221776;28;20052;-57
2022/10/16 08:29:17;;;;;;;3.28;1.90;;;19.70;99.90;;;21.59;100.00;100977.47;5229986;28;20041;-60
2022/10/16 08:31:50;;;;;;;2.38;1.52;;;20.40;99.90;;;22.08;100.00;100986.78;5229332;28;20510;-60
2022/10/16 08:34:22;;;;;;;2.17;1.30;;;20.90;99.90;;;22.55;100.00;100980.09;5229717;28;20049;-61
2022/10/16 08:36:56;;;;;;;1.52;1.25;;;21.50;99.90;;;22.88;98.20;100993.00;5229526;28;20056;-58
2022/10/16 08:39:28;;;;;;;1.95;0.90;;;21.90;99.90;;;22.98;95.44;100996.44;5229783;28;20045;-60
2022/10/16 08:42:21;;;;;;;1.00;0.85;;;22.10;99.90;;;22.88;95.10;101001.00;5228813;28;20041;-59
2022/10/16 08:45:24;;;;;;;1.27;0.77;;;22.20;99.90;;;22.76;94.65;101009.09;5230604;28;20076;-59
2022/10/16 08:48:09;;;;;;;1.25;1.10;;;22.20;99.60;;;22.60;95.33;101010.16;5230994;28;20460;-58
2022/10/16 08:50:42;;;;;;;1.23;0.60;;;22.10;99.60;;;22.59;94.75;101019.03;5213064;28;20053;-59
2022/10/16 08:53:22;;;;;;;1.73;0.70;;;22.10;99.50;;;22.56;93.54;101016.41;5228706;28;20069;-60
2022/10/16 08:55:55;;;;;;;1.25;0.73;;;22.10;99.00;;;22.58;94.67;101017.28;5210761;28;20509;-60
2022/10/16 08:58:30;;;;;;;1.40;0.73;;;22.10;99.20;;;22.62;93.83;101024.31;5228762;28;20045;-58
2022/10/16 09:01:05;;;;;;;4.05;0.90;;;22.10;98.90;;;22.63;93.34;101023.44;5228239;28;20044;-58
2022/10/16 09:04:02;;;;;;;1.10;0.80;;;22.10;98.80;;;22.69;92.81;101016.28;5229066;28;20130;-61
2022/10/16 09:06:47;;;;;;;1.67;0.75;;;22.20;98.60;;;22.65;92.54;101024.28;5229220;28;20060;-60
2022/10/16 09:09:41;;;;;;;1.05;0.50;;;22.10;98.40;;;22.50;92.75;101035.97;5228648;28;20049;-60
2022/10/16 09:12:22;;;;;;;0.75;0.60;;;22.00;98.40;;;22.50;92.97;101027.13;5229191;28;20132;-59
2022/10/16 09:15:06;;;;;;;1.48;0.70;;;22.00;98.50;;;22.63;92.57;101026.97;5229825;28;20485;-59
2022/10/16 09:17:49;;;;;;;1.25;0.65;;;22.00;98.50;;;22.79;92.18;101029.44;5228765;28;20052;-60
2022/10/16 09:20:33;;;;;;;1.30;0.47;;;22.20;98.50;;;22.91;89.32;101032.00;5230261;28;20555;-60
2022/10/16 09:23:18;;;;;;;1.13;0.60;;;22.20;97.50;;;23.02;90.10;101038.94;5228125;28;20082;-60
2022/10/16 09:25:52;;;;;;;1.17;0.57;;;22.30;97.70;;;23.03;89.34;101039.81;5227552;28;20048;-58
2022/10/16 09:28:24;;;;;;;0.55;0.30;;;22.40;97.40;;;23.04;88.40;101032.72;5229807;28;20053;-59
2022/10/16 09:30:56;;;;;;;0.55;0.45;;;22.40;97.10;;;23.02;88.14;101030.97;5229990;28;20056;-60
2022/10/16 09:33:34;;;;;;;1.27;0.40;;;22.40;96.90;;;23.06;88.50;101026.47;5151997;28;20053;-59
2022/10/16 09:36:07;;;;;;;0.57;0.50;;;22.40;97.00;;;23.10;88.40;101037.97;5277519;23;20048;-58
2022/10/16 09:38:39;;;;;;;2.53;0.50;;;22.50;97.00;;;23.07;88.05;101032.66;5206645;28;20056;-59
2022/10/16 09:41:20;;;;;;;1.25;0.60;;;22.40;96.90;;;23.10;88.79;101032.63;5203911;28;20045;-57
2022/10/16 09:43:54;;;;;;;;;;;22.50;97.00;;;23.47;88.85;101035.66;5186492;28;20041;-59
2022/10/16 09:46:29;;;;;;;1.10;0.40;;;22.70;97.20;;;23.76;86.28;101029.94;5186207;28;20012;-60
2022/10/16 09:49:03;;;;;;;;;;;23.00;96.20;;;23.87;84.29;101038.66;5186495;28;20050;-58
2022/10/16 09:51:38;;;;;;;0.60;0.50;;;23.10;95.40;;;23.98;84.70;101039.31;5186101;28;20389;-58
2022/10/16 09:54:17;;;;;;;1.58;0.50;;;23.20;95.30;;;24.02;83.35;101032.19;5186063;28;20042;-59
2022/10/16 09:56:51;;;;;;;1.00;0.40;;;23.20;94.80;;;24.05;83.54;101043.63;5186264;28;20061;-60
2022/10/16 09:59:26;;;;;;;0.60;0.60;;;23.30;94.80;;;24.00;82.43;101056.19;5186122;28;20474;-58
2022/10/16 10:02:05;;;;;;;3.22;0.75;;;23.30;94.20;;;23.99;83.10;101043.75;5186412;28;20127;-57
2022/10/16 10:04:43;;;;;;;1.10;0.57;;;23.30;94.20;;;23.98;83.52;101047.31;5185938;28;20037;-57
2022/10/16 10:07:22;;;;;;;0.40;0.40;;;23.30;94.40;;;23.96;83.85;101050.91;5186202;28;20046;-57
2022/10/16 10:09:56;;;;;;;1.50;0.50;;;23.30;94.50;;;24.02;84.02;101038.38;5186087;28;20050;-58
2022/10/16 10:12:32;;;;;;;1.27;0.30;;;23.30;94.50;;;24.03;82.21;101039.25;5186241;28;20049;-58
2022/10/16 10:15:08;;;;;;;0.55;0.43;;;23.30;93.80;;;23.92;82.50;101028.78;5187457;28;20430;-58
2022/10/16 10:17:48;;;;;;;0.50;0.30;;;23.20;93.90;;;23.83;81.61;101020.94;5186734;28;20045;-58
2022/10/16 10:20:28;;;;;;;3.08;0.40;;;23.20;93.50;;;23.87;82.16;101020.00;5186943;28;20052;-59
2022/10/16 10:23:00;;;;;;;0.40;0.40;;;23.20;93.50;;;23.93;81.15;101027.91;5186635;28;20045;-57
2022/10/16 10:25:48;;;;;;;0.60;0.30;;;23.20;93.30;;;23.97;81.56;101018.94;5186243;28;20038;-56
2022/10/16 10:28:53;;;;;;;2.38;0.60;;;23.20;93.30;;;24.13;81.04;101016.03;5185504;28;20073;-56
2022/10/16 10:31:32;;;;;;;1.77;0.50;;;23.30;93.10;;;24.20;80.57;101020.34;5186243;28;20104;-56
2022/10/16 10:34:28;;;;;;;0.45;0.20;;;23.40;92.80;;;24.19;78.61;101007.91;5186197;28;20061;-56
2022/10/16 10:37:23;;;;;;;1.15;0.30;;;23.40;92.00;;;24.08;79.60;101016.09;5185844;28;20049;-56
2022/10/16 10:40:04;;;;;;;2.08;0.40;;;23.30;92.10;;;23.79;79.71;101024.56;5185028;28;20052;-57